sensor_id;sensor_type;location;lat;lon;timestamp;pressure;altitude;pressure_sealevel;temperature;humidity
13869;BME280;7004;48.206;16.402;2023-04-05T00:02:00;100407.31;;;1.67;47.57
13869;BME280;7004;48.206;16.402;2023-04-05T00:04:28;100404.22;;;1.42;47.71
13869;BME280;7004;48.206;16.402;2023-04-05T00:06:55;100399.84;;;1.45;47.74
13869;BME280;7004;48.206;16.402;2023-04-05T00:09:26;100393.28;;;1.75;47.36
13869;BME280;7004;48.206;16.402;2023-04-05T00:11:58;100394.09;;;1.23;47.97
13869;BME280;7004;48.206;16.402;2023-04-05T00:14:28;100395.69;;;1.32;48.29
13869;BME280;7004;48.206;16.402;2023-04-05T00:16:55;100391.25;;;1.40;47.67
13869;BME280;7004;48.206;16.402;2023-04-05T00:19:27;100394.66;;;0.82;48.98
13869;BME280;7004;48.206;16.402;2023-04-05T00:22:08;100392.72;;;1.57;47.60
13869;BME280;7004;48.206;16.402;2023-04-05T00:24:39;100386.53;;;1.62;47.66
13869;BME280;7004;48.206;16.402;2023-04-05T00:27:10;100386.94;;;1.36;47.64
13869;BME280;7004;48.206;16.402;2023-04-05T00:29:38;100384.28;;;1.93;47.33
13869;BME280;7004;48.206;16.402;2023-04-05T00:32:08;100381.00;;;1.82;47.66
13869;BME280;7004;48.206;16.402;2023-04-05T00:34:38;100390.28;;;1.97;47.15
13869;BME280;7004;48.206;16.402;2023-04-05T00:37:10;100382.59;;;1.89;47.32
13869;BME280;7004;48.206;16.402;2023-04-05T00:39:39;100383.09;;;1.60;47.22
13869;BME280;7004;48.206;16.402;2023-04-05T00:42:12;100376.06;;;1.08;48.23
13869;BME280;7004;48.206;16.402;2023-04-05T00:44:40;100377.25;;;1.46;48.28
13869;BME280;7004;48.206;16.402;2023-04-05T00:47:07;100383.38;;;1.96;47.26
13869;BME280;7004;48.206;16.402;2023-04-05T00:49:34;100376.53;;;1.38;47.95
13869;BME280;7004;48.206;16.402;2023-04-05T00:52:05;100381.16;;;1.73;47.86
13869;BME280;7004;48.206;16.402;2023-04-05T00:54:35;100383.75;;;1.73;47.80
13869;BME280;7004;48.206;16.402;2023-04-05T00:57:05;100383.09;;;1.60;47.90
13869;BME280;7004;48.206;16.402;2023-04-05T00:59:33;100373.63;;;1.55;47.82
13869;BME280;7004;48.206;16.402;2023-04-05T01:08:21;100370.94;;;1.03;48.44
13869;BME280;7004;48.206;16.402;2023-04-05T01:11:01;100379.63;;;1.02;48.82
13869;BME280;7004;48.206;16.402;2023-04-05T01:13:29;100379.38;;;1.19;48.57
13869;BME280;7004;48.206;16.402;2023-04-05T01:15:55;100375.97;;;1.17;48.45
13869;BME280;7004;48.206;16.402;2023-04-05T01:18:21;100376.97;;;1.63;48.13
13869;BME280;7004;48.206;16.402;2023-04-05T01:26:58;100375.91;;;1.20;48.46
13869;BME280;7004;48.206;16.402;2023-04-05T01:33:02;100367.53;;;0.98;48.96
13869;BME280;7004;48.206;16.402;2023-04-05T01:35:51;100364.91;;;0.98;49.68
13869;BME280;7004;48.206;16.402;2023-04-05T01:38:24;100368.69;;;0.77;49.08
13869;BME280;7004;48.206;16.402;2023-04-05T01:40:52;100370.06;;;1.04;49.14
13869;BME280;7004;48.206;16.402;2023-04-05T01:43:19;100359.94;;;1.43;48.58
13869;BME280;7004;48.206;16.402;2023-04-05T01:45:46;100367.06;;;1.30;48.76
13869;BME280;7004;48.206;16.402;2023-04-05T01:48:13;100362.00;;;1.21;48.91
13869;BME280;7004;48.206;16.402;2023-04-05T01:50:41;100364.66;;;1.18;49.24
13869;BME280;7004;48.206;16.402;2023-04-05T01:53:07;100364.16;;;0.90;49.84
13869;BME280;7004;48.206;16.402;2023-04-05T01:55:34;100365.16;;;0.80;49.41
13869;BME280;7004;48.206;16.402;2023-04-05T01:58:00;100364.00;;;1.01;49.61
13869;BME280;7004;48.206;16.402;2023-04-05T02:00:28;100365.59;;;1.13;50.11
13869;BME280;7004;48.206;16.402;2023-04-05T02:02:55;100371.38;;;0.73;49.94
13869;BME280;7004;48.206;16.402;2023-04-05T02:05:21;100374.34;;;0.40;50.28
13869;BME280;7004;48.206;16.402;2023-04-05T02:07:51;100379.31;;;0.59;50.25
13869;BME280;7004;48.206;16.402;2023-04-05T02:10:18;100377.56;;;0.62;51.08
13869;BME280;7004;48.206;16.402;2023-04-05T02:12:48;100374.03;;;0.67;50.48
13869;BME280;7004;48.206;16.402;2023-04-05T02:15:14;100368.63;;;0.80;50.52
13869;BME280;7004;48.206;16.402;2023-04-05T02:17:42;100372.50;;;0.50;50.88
13869;BME280;7004;48.206;16.402;2023-04-05T02:20:12;100369.91;;;1.15;49.83
13869;BME280;7004;48.206;16.402;2023-04-05T02:22:40;100366.78;;;0.90;50.21
13869;BME280;7004;48.206;16.402;2023-04-05T02:25:10;100363.00;;;1.11;49.60
13869;BME280;7004;48.206;16.402;2023-04-05T02:27:37;100361.75;;;0.76;49.73
13869;BME280;7004;48.206;16.402;2023-04-05T02:30:05;100353.22;;;1.27;49.95
13869;BME280;7004;48.206;16.402;2023-04-05T02:32:31;100352.31;;;1.29;48.89
13869;BME280;7004;48.206;16.402;2023-04-05T02:34:57;100353.53;;;1.07;49.81
13869;BME280;7004;48.206;16.402;2023-04-05T02:37:23;100348.50;;;1.50;48.73
13869;BME280;7004;48.206;16.402;2023-04-05T02:39:51;100352.16;;;0.80;49.71
13869;BME280;7004;48.206;16.402;2023-04-05T02:42:17;100354.28;;;1.15;49.33
13869;BME280;7004;48.206;16.402;2023-04-05T02:44:44;100346.63;;;1.04;49.70
13869;BME280;7004;48.206;16.402;2023-04-05T02:47:10;100351.44;;;0.69;50.27
13869;BME280;7004;48.206;16.402;2023-04-05T02:49:36;100347.63;;;0.94;49.65
13869;BME280;7004;48.206;16.402;2023-04-05T02:52:02;100346.78;;;0.94;50.29
13869;BME280;7004;48.206;16.402;2023-04-05T02:54:29;100355.66;;;0.77;50.08
13869;BME280;7004;48.206;16.402;2023-04-05T02:56:55;100348.13;;;1.21;49.15
13869;BME280;7004;48.206;16.402;2023-04-05T02:59:22;100342.28;;;1.03;50.28
13869;BME280;7004;48.206;16.402;2023-04-05T03:01:48;100347.66;;;0.93;50.31
13869;BME280;7004;48.206;16.402;2023-04-05T03:04:14;100338.03;;;0.99;49.21
13869;BME280;7004;48.206;16.402;2023-04-05T03:06:42;100340.16;;;0.70;49.88
13869;BME280;7004;48.206;16.402;2023-04-05T03:09:11;100349.03;;;0.53;50.58
13869;BME280;7004;48.206;16.402;2023-04-05T03:11:37;100349.84;;;0.58;50.44
13869;BME280;7004;48.206;16.402;2023-04-05T03:14:04;100346.28;;;0.65;50.03
13869;BME280;7004;48.206;16.402;2023-04-05T03:16:30;100341.38;;;0.42;50.23
13869;BME280;7004;48.206;16.402;2023-04-05T03:18:56;100336.31;;;0.97;49.48
13869;BME280;7004;48.206;16.402;2023-04-05T03:21:22;100336.59;;;0.75;49.76
13869;BME280;7004;48.206;16.402;2023-04-05T03:23:48;100347.91;;;0.74;49.80
13869;BME280;7004;48.206;16.402;2023-04-05T03:26:15;100338.59;;;1.20;49.45
13869;BME280;7004;48.206;16.402;2023-04-05T03:28:41;100339.25;;;0.74;49.84
13869;BME280;7004;48.206;16.402;2023-04-05T03:31:12;100338.72;;;1.12;49.30
13869;BME280;7004;48.206;16.402;2023-04-05T03:33:41;100337.53;;;0.71;49.88
13869;BME280;7004;48.206;16.402;2023-04-05T03:36:08;100340.38;;;1.16;49.24
13869;BME280;7004;48.206;16.402;2023-04-05T03:38:34;100342.66;;;0.77;49.64
13869;BME280;7004;48.206;16.402;2023-04-05T03:41:01;100349.41;;;0.92;49.45
13869;BME280;7004;48.206;16.402;2023-04-05T03:43:28;100343.75;;;0.59;50.00
13869;BME280;7004;48.206;16.402;2023-04-05T03:45:55;100343.22;;;0.99;50.81
13869;BME280;7004;48.206;16.402;2023-04-05T03:48:21;100350.56;;;0.70;50.41
13869;BME280;7004;48.206;16.402;2023-04-05T03:50:47;100353.16;;;0.73;49.82
13869;BME280;7004;48.206;16.402;2023-04-05T03:53:14;100348.50;;;0.95;49.68
13869;BME280;7004;48.206;16.402;2023-04-05T03:55:43;100353.59;;;1.04;49.58
13869;BME280;7004;48.206;16.402;2023-04-05T03:58:15;100355.19;;;1.13;49.16
13869;BME280;7004;48.206;16.402;2023-04-05T04:00:41;100349.69;;;0.69;50.42
13869;BME280;7004;48.206;16.402;2023-04-05T04:03:12;100350.31;;;0.88;50.61
13869;BME280;7004;48.206;16.402;2023-04-05T04:05:39;100360.69;;;0.20;51.46
13869;BME280;7004;48.206;16.402;2023-04-05T04:08:05;100344.59;;;0.61;50.98
13869;BME280;7004;48.206;16.402;2023-04-05T04:10:33;100346.19;;;0.73;51.14
13869;BME280;7004;48.206;16.402;2023-04-05T04:13:00;100343.59;;;0.72;50.68
13869;BME280;7004;48.206;16.402;2023-04-05T04:15:26;100346.72;;;0.30;51.17
13869;BME280;7004;48.206;16.402;2023-04-05T04:17:52;100348.47;;;0.30;50.82
13869;BME280;7004;48.206;16.402;2023-04-05T04:20:18;100346.25;;;0.67;50.30
13869;BME280;7004;48.206;16.402;2023-04-05T04:22:44;100347.16;;;0.68;50.19
13869;BME280;7004;48.206;16.402;2023-04-05T04:25:11;100337.44;;;0.77;50.70
13869;BME280;7004;48.206;16.402;2023-04-05T04:27:41;100336.53;;;0.80;50.48
13869;BME280;7004;48.206;16.402;2023-04-05T04:30:13;100341.25;;;1.15;49.42
13869;BME280;7004;48.206;16.402;2023-04-05T04:32:41;100336.66;;;0.72;49.99
13869;BME280;7004;48.206;16.402;2023-04-05T04:35:26;100343.69;;;0.64;51.24
13869;BME280;7004;48.206;16.402;2023-04-05T04:38:01;100339.94;;;0.85;50.29
13869;BME280;7004;48.206;16.402;2023-04-05T04:40:36;100343.28;;;0.96;50.82
13869;BME280;7004;48.206;16.402;2023-04-05T04:43:11;100347.66;;;0.25;50.95
13869;BME280;7004;48.206;16.402;2023-04-05T04:45:43;100344.25;;;0.89;49.40
13869;BME280;7004;48.206;16.402;2023-04-05T04:48:17;100353.34;;;0.54;50.13
13869;BME280;7004;48.206;16.402;2023-04-05T04:50:45;100344.03;;;1.04;49.62
13869;BME280;7004;48.206;16.402;2023-04-05T04:53:12;100338.97;;;0.94;49.40
13869;BME280;7004;48.206;16.402;2023-04-05T04:55:44;100342.53;;;0.86;49.49
13869;BME280;7004;48.206;16.402;2023-04-05T04:58:12;100348.06;;;0.62;50.58
13869;BME280;7004;48.206;16.402;2023-04-05T05:00:39;100348.22;;;0.50;50.44
13869;BME280;7004;48.206;16.402;2023-04-05T05:03:08;100344.78;;;0.48;51.88
13869;BME280;7004;48.206;16.402;2023-04-05T05:05:48;100342.38;;;0.32;50.69
13869;BME280;7004;48.206;16.402;2023-04-05T05:08:15;100347.44;;;0.43;50.39
13869;BME280;7004;48.206;16.402;2023-04-05T05:10:41;100341.09;;;0.64;49.83
13869;BME280;7004;48.206;16.402;2023-04-05T05:13:08;100338.44;;;0.69;50.43
13869;BME280;7004;48.206;16.402;2023-04-05T05:15:38;100337.53;;;0.73;50.03
13869;BME280;7004;48.206;16.402;2023-04-05T05:18:06;100336.13;;;1.11;48.92
13869;BME280;7004;48.206;16.402;2023-04-05T05:20:33;100333.03;;;1.40;48.55
13869;BME280;7004;48.206;16.402;2023-04-05T05:22:59;100333.09;;;1.38;48.35
13869;BME280;7004;48.206;16.402;2023-04-05T05:25:31;100335.34;;;1.04;48.95
13869;BME280;7004;48.206;16.402;2023-04-05T05:27:57;100335.56;;;1.46;47.82
13869;BME280;7004;48.206;16.402;2023-04-05T05:30:23;100337.22;;;1.50;48.15
13869;BME280;7004;48.206;16.402;2023-04-05T05:32:49;100337.22;;;1.50;47.81
13869;BME280;7004;48.206;16.402;2023-04-05T05:35:15;100340.16;;;1.30;48.83
13869;BME280;7004;48.206;16.402;2023-04-05T05:37:41;100337.25;;;1.48;47.49
13869;BME280;7004;48.206;16.402;2023-04-05T05:40:09;100332.13;;;1.42;47.63
13869;BME280;7004;48.206;16.402;2023-04-05T05:42:38;100322.69;;;1.37;47.76
13869;BME280;7004;48.206;16.402;2023-04-05T05:45:05;100322.59;;;1.43;47.73
13869;BME280;7004;48.206;16.402;2023-04-05T05:47:32;100324.16;;;2.01;46.73
13869;BME280;7004;48.206;16.402;2023-04-05T05:49:58;100336.25;;;1.57;46.55
13869;BME280;7004;48.206;16.402;2023-04-05T05:52:24;100333.38;;;1.71;46.55
13869;BME280;7004;48.206;16.402;2023-04-05T05:54:50;100334.69;;;1.96;46.86
13869;BME280;7004;48.206;16.402;2023-04-05T05:57:17;100334.28;;;2.18;45.66
13869;BME280;7004;48.206;16.402;2023-04-05T05:59:46;100334.75;;;1.93;46.44
13869;BME280;7004;48.206;16.402;2023-04-05T06:02:12;100337.19;;;2.03;45.79
13869;BME280;7004;48.206;16.402;2023-04-05T06:04:38;100326.59;;;2.54;45.09
13869;BME280;7004;48.206;16.402;2023-04-05T06:07:04;100333.75;;;1.99;45.74
13869;BME280;7004;48.206;16.402;2023-04-05T06:09:30;100334.03;;;1.84;45.37
13869;BME280;7004;48.206;16.402;2023-04-05T06:12:00;100334.38;;;2.12;45.47
13869;BME280;7004;48.206;16.402;2023-04-05T06:14:27;100328.81;;;2.30;45.59
13869;BME280;7004;48.206;16.402;2023-04-05T06:16:54;100322.66;;;2.34;44.88
13869;BME280;7004;48.206;16.402;2023-04-05T06:19:21;100328.19;;;2.61;44.29
13869;BME280;7004;48.206;16.402;2023-04-05T06:21:47;100329.09;;;2.16;46.03
13869;BME280;7004;48.206;16.402;2023-04-05T06:24:13;100330.44;;;2.78;44.62
13869;BME280;7004;48.206;16.402;2023-04-05T06:26:39;100337.56;;;2.28;44.48
13869;BME280;7004;48.206;16.402;2023-04-05T06:29:06;100334.25;;;3.02;44.38
13869;BME280;7004;48.206;16.402;2023-04-05T06:31:34;100342.88;;;3.05;44.11
13869;BME280;7004;48.206;16.402;2023-04-05T06:34:01;100345.53;;;2.63;44.21
13869;BME280;7004;48.206;16.402;2023-04-05T06:36:29;100349.94;;;3.02;43.79
13869;BME280;7004;48.206;16.402;2023-04-05T06:38:58;100351.81;;;2.55;44.69
13869;BME280;7004;48.206;16.402;2023-04-05T06:41:25;100363.78;;;2.20;44.96
13869;BME280;7004;48.206;16.402;2023-04-05T06:43:52;100362.25;;;2.95;44.24
13869;BME280;7004;48.206;16.402;2023-04-05T06:46:18;100359.13;;;2.36;44.60
13869;BME280;7004;48.206;16.402;2023-04-05T06:48:44;100353.41;;;3.02;44.42
13869;BME280;7004;48.206;16.402;2023-04-05T06:51:12;100358.09;;;2.87;44.95
13869;BME280;7004;48.206;16.402;2023-04-05T06:53:38;100351.84;;;3.33;44.81
13869;BME280;7004;48.206;16.402;2023-04-05T06:56:05;100355.50;;;3.24;44.14
13869;BME280;7004;48.206;16.402;2023-04-05T06:58:31;100359.13;;;3.18;44.26
13869;BME280;7004;48.206;16.402;2023-04-05T07:00:59;100359.81;;;3.62;43.58
13869;BME280;7004;48.206;16.402;2023-04-05T07:03:27;100361.88;;;3.49;43.97
13869;BME280;7004;48.206;16.402;2023-04-05T07:05:56;100352.44;;;2.66;43.46
13869;BME280;7004;48.206;16.402;2023-04-05T07:08:25;100355.75;;;3.13;43.18
13869;BME280;7004;48.206;16.402;2023-04-05T07:10:52;100357.16;;;3.30;43.51
13869;BME280;7004;48.206;16.402;2023-04-05T07:13:20;100350.84;;;3.38;44.43
13869;BME280;7004;48.206;16.402;2023-04-05T07:15:46;100350.09;;;3.33;43.13
13869;BME280;7004;48.206;16.402;2023-04-05T07:18:13;100349.34;;;2.89;42.99
13869;BME280;7004;48.206;16.402;2023-04-05T07:20:46;100358.00;;;3.30;44.46
13869;BME280;7004;48.206;16.402;2023-04-05T07:23:12;100349.63;;;3.52;43.82
13869;BME280;7004;48.206;16.402;2023-04-05T07:25:39;100348.41;;;3.99;43.16
13869;BME280;7004;48.206;16.402;2023-04-05T07:28:06;100351.09;;;3.63;42.84
13869;BME280;7004;48.206;16.402;2023-04-05T07:30:32;100355.03;;;3.45;43.78
13869;BME280;7004;48.206;16.402;2023-04-05T07:32:58;100344.66;;;4.42;42.36
13869;BME280;7004;48.206;16.402;2023-04-05T07:35:24;100346.56;;;4.35;42.60
13869;BME280;7004;48.206;16.402;2023-04-05T07:37:50;100346.75;;;3.97;41.97
13869;BME280;7004;48.206;16.402;2023-04-05T07:40:17;100347.38;;;3.74;42.38
13869;BME280;7004;48.206;16.402;2023-04-05T07:42:43;100341.28;;;4.37;41.92
13869;BME280;7004;48.206;16.402;2023-04-05T07:45:09;100351.88;;;4.32;41.06
13869;BME280;7004;48.206;16.402;2023-04-05T07:47:36;100344.09;;;4.62;40.21
13869;BME280;7004;48.206;16.402;2023-04-05T07:50:02;100334.53;;;5.70;39.62
13869;BME280;7004;48.206;16.402;2023-04-05T07:52:29;100330.72;;;5.28;40.34
13869;BME280;7004;48.206;16.402;2023-04-05T07:54:55;100345.91;;;4.58;40.39
13869;BME280;7004;48.206;16.402;2023-04-05T07:57:21;100331.69;;;5.25;39.57
13869;BME280;7004;48.206;16.402;2023-04-05T07:59:48;100336.38;;;6.20;38.43
13869;BME280;7004;48.206;16.402;2023-04-05T08:02:17;100334.03;;;6.12;37.83
13869;BME280;7004;48.206;16.402;2023-04-05T08:04:44;100329.44;;;6.43;37.06
13869;BME280;7004;48.206;16.402;2023-04-05T08:07:11;100327.63;;;6.20;37.63
13869;BME280;7004;48.206;16.402;2023-04-05T08:09:37;100320.81;;;7.73;35.89
13869;BME280;7004;48.206;16.402;2023-04-05T08:12:04;100305.75;;;8.17;35.34
13869;BME280;7004;48.206;16.402;2023-04-05T08:14:31;100312.72;;;8.18;34.22
13869;BME280;7004;48.206;16.402;2023-04-05T08:16:57;100310.25;;;8.55;35.39
13869;BME280;7004;48.206;16.402;2023-04-05T08:19:23;100308.94;;;8.63;33.98
13869;BME280;7004;48.206;16.402;2023-04-05T08:21:49;100310.47;;;8.09;34.24
13869;BME280;7004;48.206;16.402;2023-04-05T08:24:16;100307.66;;;6.86;36.44
13869;BME280;7004;48.206;16.402;2023-04-05T08:26:42;100303.25;;;7.94;34.91
13869;BME280;7004;48.206;16.402;2023-04-05T08:29:08;100311.75;;;7.37;34.95
13869;BME280;7004;48.206;16.402;2023-04-05T08:31:35;100304.97;;;7.74;34.48
13869;BME280;7004;48.206;16.402;2023-04-05T08:34:01;100292.56;;;8.94;34.47
13869;BME280;7004;48.206;16.402;2023-04-05T08:36:27;100283.25;;;10.44;33.03
13869;BME280;7004;48.206;16.402;2023-04-05T08:38:53;100286.44;;;7.96;34.94
13869;BME280;7004;48.206;16.402;2023-04-05T08:41:23;100300.28;;;7.60;35.33
13869;BME280;7004;48.206;16.402;2023-04-05T08:44:10;100286.28;;;6.95;36.74
13869;BME280;7004;48.206;16.402;2023-04-05T08:46:36;100288.50;;;7.49;36.84
13869;BME280;7004;48.206;16.402;2023-04-05T08:49:06;100273.91;;;10.03;32.32
13869;BME280;7004;48.206;16.402;2023-04-05T08:51:36;100286.03;;;7.02;35.86
13869;BME280;7004;48.206;16.402;2023-04-05T08:54:04;100286.44;;;6.45;37.63
13869;BME280;7004;48.206;16.402;2023-04-05T08:56:33;100283.34;;;7.03;36.63
13869;BME280;7004;48.206;16.402;2023-04-05T08:59:07;100268.59;;;10.21;32.63
13869;BME280;7004;48.206;16.402;2023-04-05T09:01:42;100258.63;;;10.59;31.51
13869;BME280;7004;48.206;16.402;2023-04-05T09:04:17;100274.81;;;8.02;33.75
13869;BME280;7004;48.206;16.402;2023-04-05T09:06:44;100251.78;;;10.39;32.14
13869;BME280;7004;48.206;16.402;2023-04-05T09:09:11;100262.25;;;8.27;33.82
13869;BME280;7004;48.206;16.402;2023-04-05T09:11:38;100266.09;;;8.41;33.73
13869;BME280;7004;48.206;16.402;2023-04-05T09:14:06;100272.06;;;8.05;34.08
13869;BME280;7004;48.206;16.402;2023-04-05T09:16:39;100263.94;;;8.68;34.33
13869;BME280;7004;48.206;16.402;2023-04-05T09:19:07;100269.94;;;8.32;34.10
13869;BME280;7004;48.206;16.402;2023-04-05T09:22:06;100267.28;;;8.13;33.32
13869;BME280;7004;48.206;16.402;2023-04-05T09:24:35;100281.66;;;8.06;33.48
13869;BME280;7004;48.206;16.402;2023-04-05T09:27:14;100274.53;;;7.47;33.54
13869;BME280;7004;48.206;16.402;2023-04-05T09:29:51;100279.75;;;8.09;33.38
13869;BME280;7004;48.206;16.402;2023-04-05T09:32:18;100252.97;;;8.58;33.54
13869;BME280;7004;48.206;16.402;2023-04-05T09:34:46;100265.09;;;8.62;32.47
13869;BME280;7004;48.206;16.402;2023-04-05T09:37:18;100268.44;;;7.66;34.80
13869;BME280;7004;48.206;16.402;2023-04-05T09:39:49;100264.34;;;7.59;34.43
13869;BME280;7004;48.206;16.402;2023-04-05T09:42:20;100241.66;;;8.17;34.87
13869;BME280;7004;48.206;16.402;2023-04-05T09:44:58;100241.97;;;9.40;34.22
13869;BME280;7004;48.206;16.402;2023-04-05T09:47:31;100232.97;;;10.93;31.32
13869;BME280;7004;48.206;16.402;2023-04-05T09:50:00;100229.69;;;9.91;31.91
13869;BME280;7004;48.206;16.402;2023-04-05T09:52:29;100233.59;;;7.61;34.18
13869;BME280;7004;48.206;16.402;2023-04-05T09:54:59;100230.53;;;9.05;33.20
13869;BME280;7004;48.206;16.402;2023-04-05T09:57:27;100239.66;;;8.80;33.13
13869;BME280;7004;48.206;16.402;2023-04-05T09:59:57;100237.75;;;8.46;33.69
13869;BME280;7004;48.206;16.402;2023-04-05T10:02:24;100215.91;;;8.80;32.85
13869;BME280;7004;48.206;16.402;2023-04-05T10:04:50;100219.72;;;8.56;34.37
13869;BME280;7004;48.206;16.402;2023-04-05T10:07:18;100210.66;;;9.84;32.60
13869;BME280;7004;48.206;16.402;2023-04-05T10:09:46;100204.47;;;9.68;33.60
13869;BME280;7004;48.206;16.402;2023-04-05T10:12:33;100196.19;;;9.58;31.56
13869;BME280;7004;48.206;16.402;2023-04-05T10:15:02;100202.16;;;9.10;31.11
13869;BME280;7004;48.206;16.402;2023-04-05T10:20:21;100202.34;;;9.92;31.46
13869;BME280;7004;48.206;16.402;2023-04-05T10:28:32;100195.44;;;7.91;33.24
13869;BME280;7004;48.206;16.402;2023-04-05T10:33:59;100186.34;;;8.92;31.53
13869;BME280;7004;48.206;16.402;2023-04-05T10:39:27;100188.28;;;8.32;30.92
13869;BME280;7004;48.206;16.402;2023-04-05T10:42:04;100180.44;;;9.22;29.14
13869;BME280;7004;48.206;16.402;2023-04-05T10:44:33;100181.44;;;9.88;28.26
13869;BME280;7004;48.206;16.402;2023-04-05T10:47:03;100183.06;;;9.90;28.03
13869;BME280;7004;48.206;16.402;2023-04-05T10:49:45;100179.03;;;9.15;27.92
13869;BME280;7004;48.206;16.402;2023-04-05T10:52:12;100171.97;;;9.50;29.66
13869;BME280;7004;48.206;16.402;2023-04-05T10:54:39;100179.22;;;9.29;30.16
13869;BME280;7004;48.206;16.402;2023-04-05T10:57:08;100178.59;;;8.70;31.71
13869;BME280;7004;48.206;16.402;2023-04-05T10:59:40;100175.78;;;8.18;31.86
13869;BME280;7004;48.206;16.402;2023-04-05T11:02:08;100173.91;;;8.01;31.56
13869;BME280;7004;48.206;16.402;2023-04-05T11:04:34;100171.13;;;8.61;32.30
13869;BME280;7004;48.206;16.402;2023-04-05T11:07:19;100156.34;;;9.63;29.59
13869;BME280;7004;48.206;16.402;2023-04-05T11:10:02;100157.03;;;9.16;29.25
13869;BME280;7004;48.206;16.402;2023-04-05T11:20:53;100158.25;;;8.55;32.42
13869;BME280;7004;48.206;16.402;2023-04-05T11:23:30;100164.69;;;9.03;32.12
13869;BME280;7004;48.206;16.402;2023-04-05T11:26:04;100158.72;;;9.17;32.14
13869;BME280;7004;48.206;16.402;2023-04-05T11:28:38;100160.97;;;8.90;32.12
13869;BME280;7004;48.206;16.402;2023-04-05T11:31:18;100158.00;;;9.31;30.89
13869;BME280;7004;48.206;16.402;2023-04-05T11:36:11;100152.59;;;9.16;31.99
13869;BME280;7004;48.206;16.402;2023-04-05T11:38:43;100157.69;;;8.29;31.78
13869;BME280;7004;48.206;16.402;2023-04-05T11:41:17;100152.47;;;10.51;30.53
13869;BME280;7004;48.206;16.402;2023-04-05T11:43:43;100152.78;;;10.61;29.86
13869;BME280;7004;48.206;16.402;2023-04-05T11:46:13;100150.09;;;10.46;29.02
13869;BME280;7004;48.206;16.402;2023-04-05T11:48:40;100149.34;;;9.11;30.58
13869;BME280;7004;48.206;16.402;2023-04-05T11:51:10;100146.22;;;9.38;29.63
13869;BME280;7004;48.206;16.402;2023-04-05T11:53:37;100144.00;;;10.13;29.40
13869;BME280;7004;48.206;16.402;2023-04-05T11:56:09;100137.59;;;10.01;28.34
13869;BME280;7004;48.206;16.402;2023-04-05T11:58:39;100133.25;;;9.51;28.84
13869;BME280;7004;48.206;16.402;2023-04-05T12:01:07;100143.03;;;8.96;29.19
13869;BME280;7004;48.206;16.402;2023-04-05T12:03:38;100146.16;;;8.87;29.43
13869;BME280;7004;48.206;16.402;2023-04-05T12:06:05;100125.75;;;10.08;29.35
13869;BME280;7004;48.206;16.402;2023-04-05T12:08:44;100129.53;;;10.04;28.51
13869;BME280;7004;48.206;16.402;2023-04-05T12:11:28;100126.38;;;9.64;28.18
13869;BME280;7004;48.206;16.402;2023-04-05T12:13:58;100115.28;;;10.22;29.19
13869;BME280;7004;48.206;16.402;2023-04-05T12:16:25;100112.47;;;11.18;28.01
13869;BME280;7004;48.206;16.402;2023-04-05T12:18:57;100126.78;;;10.21;28.97
13869;BME280;7004;48.206;16.402;2023-04-05T12:21:24;100111.81;;;11.28;28.10
13869;BME280;7004;48.206;16.402;2023-04-05T12:23:52;100117.09;;;11.14;26.75
13869;BME280;7004;48.206;16.402;2023-04-05T12:26:19;100108.50;;;11.10;27.71
13869;BME280;7004;48.206;16.402;2023-04-05T12:28:57;100115.97;;;10.10;28.65
13869;BME280;7004;48.206;16.402;2023-04-05T12:31:45;100115.16;;;9.76;28.97
13869;BME280;7004;48.206;16.402;2023-04-05T12:34:23;100100.66;;;12.23;26.20
13869;BME280;7004;48.206;16.402;2023-04-05T12:36:50;100105.25;;;10.29;27.10
13869;BME280;7004;48.206;16.402;2023-04-05T12:39:17;100103.25;;;10.17;28.21
13869;BME280;7004;48.206;16.402;2023-04-05T12:41:43;100102.31;;;9.70;28.90
13869;BME280;7004;48.206;16.402;2023-04-05T12:44:36;100102.00;;;8.73;29.29
13869;BME280;7004;48.206;16.402;2023-04-05T12:47:02;100085.16;;;9.28;29.94
13869;BME280;7004;48.206;16.402;2023-04-05T12:49:36;100089.84;;;9.72;28.97
13869;BME280;7004;48.206;16.402;2023-04-05T12:52:03;100092.38;;;9.91;30.08
13869;BME280;7004;48.206;16.402;2023-04-05T12:54:30;100096.75;;;9.41;29.96
13869;BME280;7004;48.206;16.402;2023-04-05T12:56:57;100088.94;;;9.40;29.37
13869;BME280;7004;48.206;16.402;2023-04-05T12:59:23;100078.75;;;11.21;28.49
13869;BME280;7004;48.206;16.402;2023-04-05T13:01:49;100086.56;;;10.64;27.30
13869;BME280;7004;48.206;16.402;2023-04-05T13:04:16;100095.81;;;9.60;29.08
13869;BME280;7004;48.206;16.402;2023-04-05T13:06:44;100083.50;;;9.92;28.62
13869;BME280;7004;48.206;16.402;2023-04-05T13:09:13;100072.69;;;11.19;26.97
13869;BME280;7004;48.206;16.402;2023-04-05T13:11:39;100083.25;;;10.44;27.32
13869;BME280;7004;48.206;16.402;2023-04-05T13:14:05;100092.19;;;9.94;28.92
13869;BME280;7004;48.206;16.402;2023-04-05T13:16:31;100083.16;;;9.49;28.17
13869;BME280;7004;48.206;16.402;2023-04-05T13:18:58;100080.16;;;9.24;29.20
13869;BME280;7004;48.206;16.402;2023-04-05T13:21:24;100079.75;;;9.31;29.64
13869;BME280;7004;48.206;16.402;2023-04-05T13:23:50;100085.41;;;9.24;30.31
13869;BME280;7004;48.206;16.402;2023-04-05T13:26:16;100088.13;;;10.04;30.06
13869;BME280;7004;48.206;16.402;2023-04-05T13:28:42;100091.94;;;9.16;29.80
13869;BME280;7004;48.206;16.402;2023-04-05T13:31:08;100084.78;;;9.52;29.40
13869;BME280;7004;48.206;16.402;2023-04-05T13:33:35;100100.78;;;8.81;30.58
13869;BME280;7004;48.206;16.402;2023-04-05T13:36:03;100089.75;;;8.55;30.86
13869;BME280;7004;48.206;16.402;2023-04-05T13:38:29;100080.22;;;10.97;37.02
13869;BME280;7004;48.206;16.402;2023-04-05T13:40:56;100084.03;;;10.31;32.74
13869;BME280;7004;48.206;16.402;2023-04-05T13:43:22;100092.91;;;11.06;30.91
13869;BME280;7004;48.206;16.402;2023-04-05T13:45:49;100081.91;;;9.23;30.64
13869;BME280;7004;48.206;16.402;2023-04-05T13:48:15;100090.41;;;9.46;30.80
13869;BME280;7004;48.206;16.402;2023-04-05T13:50:42;100074.25;;;10.93;40.82